createdAt,value
2023-04-12T00:00:17.905Z,2.20
2023-04-12T00:02:45.167Z,1.63
2023-04-12T00:05:13.904Z,2.17
2023-04-12T00:07:42.732Z,2.35
2023-04-12T00:10:10.323Z,2.20
2023-04-12T00:12:37.195Z,1.88
2023-04-12T00:15:06.742Z,1.73
2023-04-12T00:17:34.827Z,1.70
2023-04-12T00:20:05.578Z,1.67
2023-04-12T00:22:32.810Z,1.70
2023-04-12T00:24:59.718Z,1.75
2023-04-12T00:27:26.644Z,1.70
2023-04-12T00:29:53.460Z,1.40
2023-04-12T00:32:20.705Z,1.50
2023-04-12T00:34:47.603Z,1.63
2023-04-12T00:37:14.431Z,1.63
2023-04-12T00:39:41.423Z,1.40
2023-04-12T00:42:08.169Z,1.42
2023-04-12T00:44:35.681Z,1.27
2023-04-12T00:47:05.600Z,1.60
2023-04-12T00:49:34.247Z,1.52
2023-04-12T00:52:06.712Z,1.20
2023-04-12T00:54:34.919Z,1.40
2023-04-12T00:57:02.225Z,1.50
2023-04-12T00:59:29.762Z,1.60
2023-04-12T01:01:58.008Z,1.40
2023-04-12T01:04:26.866Z,1.30
2023-04-12T01:07:04.435Z,1.40
2023-04-12T01:09:45.124Z,1.35
2023-04-12T01:12:23.036Z,1.38
2023-04-12T01:15:12.059Z,1.73
2023-04-12T01:18:02.659Z,1.23
2023-04-12T01:20:39.351Z,1.83
2023-04-12T01:23:11.792Z,1.55
2023-04-12T01:26:06.484Z,1.48
2023-04-12T01:28:34.957Z,1.40
2023-04-12T01:31:03.433Z,1.60
2023-04-12T01:33:31.723Z,1.17
2023-04-12T01:36:00.802Z,1.90
2023-04-12T01:38:28.908Z,1.42
2023-04-12T01:40:56.376Z,1.80
2023-04-12T01:43:23.165Z,1.97
2023-04-12T01:45:50.117Z,1.40
2023-04-12T01:48:17.752Z,1.50
2023-04-12T01:50:51.701Z,1.40
2023-04-12T01:53:28.793Z,2.15
2023-04-12T01:56:00.020Z,1.60
2023-04-12T01:58:29.147Z,1.35
2023-04-12T02:00:57.787Z,1.77
2023-04-12T02:03:25.070Z,1.70
2023-04-12T02:05:52.797Z,2.15
2023-04-12T02:08:21.710Z,1.13
2023-04-12T02:10:48.646Z,1.58
2023-04-12T02:13:18.184Z,1.67
2023-04-12T02:15:45.976Z,1.52
2023-04-12T02:18:13.892Z,1.52
2023-04-12T02:20:41.943Z,1.80
2023-04-12T02:23:09.029Z,1.55
2023-04-12T02:25:36.851Z,1.95
2023-04-12T02:28:04.156Z,1.55
2023-04-12T02:30:31.126Z,1.70
2023-04-12T02:32:58.672Z,1.80
2023-04-12T02:35:31.968Z,1.40
2023-04-12T02:38:08.390Z,2.22
2023-04-12T02:40:42.365Z,1.67
2023-04-12T02:43:13.301Z,2.00
2023-04-12T02:45:44.290Z,1.60
2023-04-12T02:48:11.950Z,1.70
2023-04-12T02:50:39.033Z,2.05
2023-04-12T02:53:16.638Z,1.45
2023-04-12T02:55:47.646Z,2.03
2023-04-12T02:58:17.490Z,1.60
2023-04-12T03:00:50.040Z,1.88
2023-04-12T03:03:21.854Z,1.90
2023-04-12T03:05:53.088Z,1.73
2023-04-12T03:08:20.224Z,2.00
2023-04-12T03:10:52.435Z,1.57
2023-04-12T03:13:19.744Z,1.27
2023-04-12T03:15:53.061Z,2.00
2023-04-12T03:18:21.147Z,1.20
2023-04-12T03:20:52.407Z,1.65
2023-04-12T03:23:20.548Z,1.77
2023-04-12T03:25:53.428Z,1.50
2023-04-12T03:28:35.636Z,1.80
2023-04-12T03:31:05.544Z,1.85
2023-04-12T03:33:58.787Z,1.75
2023-04-12T03:36:27.244Z,1.40
2023-04-12T03:39:04.798Z,2.20
2023-04-12T03:41:34.413Z,1.65
2023-04-12T03:44:04.268Z,1.90
2023-04-12T03:46:33.292Z,2.38
2023-04-12T03:49:04.879Z,1.20
2023-04-12T03:51:33.101Z,1.85
2023-04-12T03:54:02.875Z,1.40
2023-04-12T03:56:35.684Z,1.70
2023-04-12T03:59:09.638Z,1.95
2023-04-12T04:01:39.095Z,1.87
2023-04-12T04:04:07.385Z,2.10
2023-04-12T04:06:34.885Z,1.70
2023-04-12T04:09:01.932Z,1.45
2023-04-12T04:11:31.894Z,1.92
2023-04-12T04:14:05.583Z,1.63
2023-04-12T04:16:32.985Z,1.65
2023-04-12T04:19:02.130Z,1.95
2023-04-12T04:21:30.581Z,1.48
2023-04-12T04:24:02.402Z,1.73
2023-04-12T04:26:34.426Z,1.60
2023-04-12T04:29:08.954Z,1.50
2023-04-12T04:31:39.730Z,1.88
2023-04-12T04:34:09.183Z,2.00
2023-04-12T04:36:43.951Z,2.05
2023-04-12T04:39:13.122Z,1.27
2023-04-12T04:41:41.568Z,1.80
2023-04-12T04:44:36.095Z,1.23
2023-04-12T04:47:06.949Z,1.17
2023-04-12T04:49:34.016Z,1.92
2023-04-12T04:52:08.848Z,2.50
2023-04-12T04:54:36.053Z,1.83
2023-04-12T04:57:03.103Z,1.65
2023-04-12T04:59:30.415Z,2.00
2023-04-12T05:02:11.013Z,2.15
2023-04-12T05:04:38.016Z,2.00
2023-04-12T05:07:05.008Z,1.75
2023-04-12T05:09:32.117Z,2.20
2023-04-12T05:11:59.542Z,1.52
2023-04-12T05:14:41.291Z,2.03
2023-04-12T05:17:11.901Z,1.87
2023-04-12T05:19:40.039Z,1.90
2023-04-12T05:22:06.915Z,1.88
2023-04-12T05:24:33.790Z,1.90
2023-04-12T05:27:02.101Z,1.70
2023-04-12T05:29:29.296Z,2.37
2023-04-12T05:31:59.315Z,2.17
2023-04-12T05:34:27.017Z,2.30
2023-04-12T05:36:56.981Z,1.80
2023-04-12T05:39:24.291Z,2.30
2023-04-12T05:41:52.771Z,2.03
2023-04-12T05:44:21.402Z,1.90
2023-04-12T05:46:48.359Z,2.35
2023-04-12T05:49:16.487Z,2.17
2023-04-12T05:51:43.300Z,2.42
2023-04-12T05:54:21.268Z,2.63
2023-04-12T05:56:49.913Z,2.30
2023-04-12T05:59:19.713Z,2.50
2023-04-12T06:01:47.062Z,2.50
2023-04-12T06:04:15.215Z,2.47
2023-04-12T06:06:43.608Z,2.50
2023-04-12T06:09:11.094Z,2.60
2023-04-12T06:11:39.424Z,2.78
2023-04-12T06:14:06.804Z,3.35
2023-04-12T06:16:33.773Z,3.05
2023-04-12T06:19:00.798Z,2.87
2023-04-12T06:21:28.265Z,3.33
2023-04-12T06:23:55.561Z,3.85
2023-04-12T06:26:22.418Z,3.50
2023-04-12T06:28:49.306Z,3.63
2023-04-12T06:31:17.251Z,4.20
2023-04-12T06:33:44.701Z,3.33
2023-04-12T06:36:13.038Z,18.08
2023-04-12T06:38:39.911Z,4.57
2023-04-12T06:41:07.069Z,4.07
2023-04-12T06:43:34.363Z,5.33
2023-04-12T06:46:03.074Z,4.40
2023-04-12T06:48:30.140Z,3.72
2023-04-12T06:50:56.990Z,4.40
2023-04-12T06:53:23.881Z,3.80
2023-04-12T06:55:51.209Z,4.30
2023-04-12T06:58:18.166Z,3.08
2023-04-12T07:00:45.752Z,4.30
2023-04-12T07:03:12.852Z,4.20
2023-04-12T07:05:39.953Z,4.15
2023-04-12T07:08:08.918Z,3.80
2023-04-12T07:10:36.209Z,4.47
2023-04-12T07:13:07.196Z,4.35
2023-04-12T07:15:34.305Z,4.00
2023-04-12T07:18:01.294Z,4.30
2023-04-12T07:20:28.110Z,3.93
2023-04-12T07:22:55.002Z,3.50
2023-04-12T07:25:22.056Z,3.88
2023-04-12T07:27:50.576Z,3.78
2023-04-12T07:30:18.669Z,3.33
2023-04-12T07:32:45.990Z,3.27
2023-04-12T07:35:12.884Z,3.95
2023-04-12T07:37:40.093Z,3.30
2023-04-12T07:40:07.455Z,3.28
2023-04-12T07:42:34.247Z,3.72
2023-04-12T07:45:01.191Z,3.43
2023-04-12T07:47:28.014Z,3.47
2023-04-12T07:49:55.818Z,3.50
2023-04-12T07:52:22.588Z,3.03
2023-04-12T07:54:49.338Z,3.03
2023-04-12T07:57:16.446Z,3.00
2023-04-12T07:59:43.241Z,2.88
2023-04-12T08:02:10.252Z,3.00
2023-04-12T08:04:38.250Z,3.05
2023-04-12T08:07:05.076Z,2.75
2023-04-12T08:09:31.906Z,2.60
2023-04-12T08:11:58.733Z,3.67
2023-04-12T08:14:27.435Z,3.75
2023-04-12T08:16:54.654Z,2.92
2023-04-12T08:19:21.429Z,3.10
2023-04-12T08:21:48.405Z,2.60
2023-04-12T08:24:15.284Z,3.10
2023-04-12T08:26:42.385Z,3.22
2023-04-12T08:29:09.414Z,3.10
2023-04-12T08:31:36.284Z,3.50
2023-04-12T08:34:03.065Z,3.07
2023-04-12T08:36:30.194Z,2.92
2023-04-12T08:39:01.353Z,3.10
2023-04-12T08:41:29.314Z,3.08
2023-04-12T08:43:57.002Z,2.83
2023-04-12T08:46:24.000Z,3.07
2023-04-12T08:48:54.793Z,3.15
2023-04-12T08:51:22.826Z,3.53
2023-04-12T08:53:50.993Z,3.03
2023-04-12T08:56:18.727Z,3.95
2023-04-12T08:58:49.029Z,2.77
2023-04-12T09:01:17.406Z,3.45
2023-04-12T09:03:45.035Z,3.83
2023-04-12T09:06:13.190Z,3.40
2023-04-12T09:08:54.440Z,3.65
2023-04-12T09:11:26.216Z,3.17
2023-04-12T09:13:54.998Z,3.15
2023-04-12T09:16:40.879Z,3.35
2023-04-12T09:19:09.260Z,2.97
2023-04-12T09:21:37.156Z,3.20
2023-04-12T09:24:15.141Z,3.03
2023-04-12T09:26:42.497Z,2.85
2023-04-12T09:29:25.808Z,3.05
2023-04-12T09:32:07.651Z,3.53
2023-04-12T09:34:36.268Z,3.45
2023-04-12T09:37:18.311Z,3.40
2023-04-12T09:39:45.457Z,3.13
2023-04-12T09:42:29.828Z,3.50
2023-04-12T09:45:01.534Z,3.70
2023-04-12T09:47:41.556Z,3.30
2023-04-12T09:50:09.807Z,3.03
2023-04-12T09:52:39.038Z,3.03
2023-04-12T09:55:10.459Z,3.22
2023-04-12T09:57:46.873Z,3.63
2023-04-12T10:00:17.937Z,2.70
2023-04-12T10:02:47.678Z,2.80
2023-04-12T10:05:18.211Z,3.03
2023-04-12T10:07:46.017Z,3.28
2023-04-12T10:10:14.753Z,2.92
2023-04-12T10:12:42.855Z,3.53
2023-04-12T10:15:15.481Z,2.80
2023-04-12T10:17:47.503Z,3.05
2023-04-12T10:20:17.196Z,2.83
2023-04-12T10:22:52.600Z,2.92
2023-04-12T10:25:25.661Z,2.78
2023-04-12T10:27:53.546Z,2.83
2023-04-12T10:30:23.309Z,2.70
2023-04-12T10:33:11.532Z,4.50
2023-04-12T10:35:55.061Z,3.17
2023-04-12T10:38:25.089Z,3.58
2023-04-12T10:41:15.033Z,3.17
2023-04-12T10:43:46.586Z,2.85
2023-04-12T10:46:52.433Z,3.90
2023-04-12T10:49:20.091Z,2.65
2023-04-12T10:52:05.242Z,3.40
2023-04-12T10:54:35.801Z,2.30
2023-04-12T10:57:04.365Z,2.00
2023-04-12T10:59:59.479Z,2.33
2023-04-12T11:02:26.666Z,2.55
2023-04-12T11:05:09.355Z,2.92
2023-04-12T11:07:53.682Z,2.50
2023-04-12T11:10:39.371Z,2.90
2023-04-12T11:13:09.088Z,3.10
2023-04-12T11:15:39.851Z,2.60
2023-04-12T11:18:12.616Z,2.80
2023-04-12T11:20:44.344Z,3.07
2023-04-12T11:23:12.285Z,2.85
2023-04-12T11:25:39.198Z,2.47
2023-04-12T11:28:17.269Z,2.13
2023-04-12T11:30:53.936Z,2.50
2023-04-12T11:33:37.736Z,2.37
2023-04-12T11:36:13.113Z,2.10
2023-04-12T11:38:40.694Z,2.20
2023-04-12T11:41:09.243Z,2.30
2023-04-12T11:43:38.653Z,2.10
2023-04-12T11:46:05.913Z,2.43
2023-04-12T11:48:33.280Z,2.00
2023-04-12T11:51:10.176Z,1.90
2023-04-12T11:53:41.380Z,1.77
2023-04-12T11:56:10.589Z,2.08
2023-04-12T11:58:37.581Z,1.80
2023-04-12T12:01:04.850Z,2.28
2023-04-12T12:03:31.843Z,1.95
2023-04-12T12:05:59.336Z,1.58
2023-04-12T12:08:26.768Z,1.70
2023-04-12T12:11:07.033Z,1.70
2023-04-12T12:13:52.706Z,1.55
2023-04-12T12:16:28.300Z,2.33
2023-04-12T12:18:57.001Z,2.03
2023-04-12T12:21:23.997Z,2.20
2023-04-12T12:23:50.914Z,1.70
2023-04-12T12:26:28.348Z,1.77
2023-04-12T12:28:57.281Z,1.80
2023-04-12T12:31:26.457Z,1.65
2023-04-12T12:33:58.335Z,1.83
2023-04-12T12:36:33.728Z,1.80
2023-04-12T12:39:18.507Z,1.20
2023-04-12T12:41:56.496Z,1.20
2023-04-12T12:44:24.174Z,1.38
2023-04-12T12:46:56.933Z,1.83
2023-04-12T12:49:30.406Z,1.30
2023-04-12T12:51:57.517Z,1.92
2023-04-12T12:54:39.400Z,1.50
2023-04-12T12:57:08.615Z,1.60
2023-04-12T12:59:35.606Z,2.10
2023-04-12T13:02:02.620Z,1.77
2023-04-12T13:04:29.894Z,1.73
2023-04-12T13:06:56.807Z,1.73
2023-04-12T13:09:24.578Z,1.40
2023-04-12T13:11:51.691Z,1.85
2023-04-12T13:14:18.428Z,1.80
2023-04-12T13:16:46.113Z,1.50
2023-04-12T13:19:13.118Z,2.03
2023-04-12T13:21:42.605Z,1.75
2023-04-12T13:24:09.580Z,1.90
2023-04-12T13:26:36.418Z,1.90
2023-04-12T13:29:03.233Z,2.35
2023-04-12T13:31:30.063Z,1.80
2023-04-12T13:33:57.439Z,2.08
2023-04-12T13:36:24.261Z,1.83
2023-04-12T13:38:51.503Z,1.53
2023-04-12T13:41:19.147Z,1.35
2023-04-12T13:43:45.895Z,1.60
2023-04-12T13:46:13.432Z,1.73
2023-04-12T13:48:40.309Z,1.92
2023-04-12T13:51:07.435Z,1.40
2023-04-12T13:53:34.199Z,1.77
2023-04-12T13:56:01.006Z,1.42
2023-04-12T13:58:28.482Z,1.48
2023-04-12T14:00:58.621Z,1.80
2023-04-12T14:03:25.639Z,1.20
2023-04-12T14:05:52.680Z,1.50
2023-04-12T14:08:19.547Z,1.50
2023-04-12T14:10:46.555Z,1.45
2023-04-12T14:13:13.299Z,1.40
2023-04-12T14:15:40.182Z,1.67
2023-04-12T14:18:06.996Z,1.75
2023-04-12T14:20:33.839Z,1.58
2023-04-12T14:23:01.392Z,1.20
2023-04-12T14:25:28.216Z,1.45
2023-04-12T14:27:54.960Z,1.37
2023-04-12T14:30:22.064Z,1.40
2023-04-12T14:32:49.594Z,1.80
2023-04-12T14:35:17.053Z,1.40
2023-04-12T14:37:44.219Z,1.40
2023-04-12T14:40:11.868Z,1.43
2023-04-12T14:42:38.713Z,1.10
2023-04-12T14:45:08.024Z,1.50
2023-04-12T14:47:35.970Z,1.05
2023-04-12T14:50:03.861Z,1.30
2023-04-12T14:52:30.974Z,1.00
2023-04-12T14:54:57.746Z,1.40
2023-04-12T14:57:24.614Z,1.70
2023-04-12T14:59:51.766Z,1.27
2023-04-12T15:02:19.960Z,1.45
2023-04-12T15:04:49.577Z,1.00
2023-04-12T15:07:16.714Z,1.10
2023-04-12T15:09:44.083Z,1.50
2023-04-12T15:12:11.024Z,1.13
2023-04-12T15:14:38.215Z,1.63
2023-04-12T15:17:05.060Z,1.63
2023-04-12T15:19:31.836Z,1.60
2023-04-12T15:22:00.258Z,1.73
2023-04-12T15:24:27.075Z,1.52
2023-04-12T15:26:53.868Z,1.63
2023-04-12T15:29:22.554Z,1.23
2023-04-12T15:31:49.774Z,1.20
2023-04-12T15:34:17.389Z,1.50
2023-04-12T15:36:44.501Z,1.83
2023-04-12T15:39:12.693Z,1.55
2023-04-12T15:41:41.680Z,1.20
2023-04-12T15:44:10.125Z,1.17
2023-04-12T15:46:37.068Z,1.42
2023-04-12T15:49:04.173Z,1.20
2023-04-12T15:51:32.329Z,1.38
2023-04-12T15:53:59.642Z,0.90
2023-04-12T15:56:26.684Z,1.30
2023-04-12T15:58:58.042Z,1.27
2023-04-12T16:01:25.684Z,1.33
2023-04-12T16:03:53.141Z,1.38
2023-04-12T16:06:20.774Z,1.30
2023-04-12T16:08:52.091Z,1.70
2023-04-12T16:11:21.447Z,1.40
2023-04-12T16:13:50.521Z,1.40
2023-04-12T16:16:18.579Z,1.25
2023-04-12T16:18:46.427Z,1.10
2023-04-12T16:21:17.046Z,1.10
2023-04-12T16:23:44.599Z,1.52
2023-04-12T16:26:12.402Z,1.60
2023-04-12T16:28:39.550Z,1.40
2023-04-12T16:31:06.900Z,1.23
2023-04-12T16:33:33.774Z,1.23
2023-04-12T16:36:02.099Z,1.55
2023-04-12T16:38:28.888Z,1.65
2023-04-12T16:40:55.759Z,1.50
2023-04-12T16:43:22.516Z,1.43
2023-04-12T16:45:49.641Z,1.02
2023-04-12T16:48:17.438Z,1.40
2023-04-12T16:50:46.271Z,1.40
2023-04-12T16:53:14.147Z,1.60
2023-04-12T16:55:43.954Z,1.33
2023-04-12T16:58:11.434Z,1.90
2023-04-12T17:00:39.287Z,2.30
2023-04-12T17:03:09.543Z,1.83
2023-04-12T17:05:37.260Z,1.60
2023-04-12T17:08:05.654Z,1.60
2023-04-12T17:10:33.502Z,1.70
2023-04-12T17:13:02.094Z,1.52
2023-04-12T17:15:29.908Z,1.60
2023-04-12T17:18:05.269Z,1.30
2023-04-12T17:20:33.166Z,1.40
2023-04-12T17:23:00.655Z,1.60
2023-04-12T17:25:31.464Z,1.40
2023-04-12T17:27:59.725Z,1.83
2023-04-12T17:30:27.492Z,1.93
2023-04-12T17:32:55.074Z,1.30
2023-04-12T17:35:22.576Z,1.40
2023-04-12T17:37:49.991Z,1.60
2023-04-12T17:40:17.014Z,1.90
2023-04-12T17:42:44.821Z,1.50
2023-04-12T17:45:14.510Z,1.40
2023-04-12T17:47:42.563Z,1.50
2023-04-12T17:50:11.224Z,1.05
2023-04-12T17:52:38.404Z,1.88
2023-04-12T17:55:07.607Z,1.30
2023-04-12T17:57:34.727Z,1.50
2023-04-12T18:00:01.604Z,1.40
2023-04-12T18:02:28.868Z,1.80
2023-04-12T18:04:55.933Z,1.45
2023-04-12T18:07:23.714Z,1.57
2023-04-12T18:09:50.675Z,1.23
2023-04-12T18:12:17.543Z,1.63
2023-04-12T18:14:44.892Z,1.75
2023-04-12T18:17:11.863Z,1.67
2023-04-12T18:19:38.932Z,1.40
2023-04-12T18:22:05.802Z,1.52
2023-04-12T18:24:32.968Z,1.75
2023-04-12T18:27:00.429Z,1.38
2023-04-12T18:29:27.484Z,1.75
2023-04-12T18:31:54.490Z,1.40
2023-04-12T18:34:22.715Z,1.40
2023-04-12T18:36:49.536Z,1.45
2023-04-12T18:39:16.717Z,1.65
2023-04-12T18:41:43.517Z,1.60
2023-04-12T18:44:11.955Z,1.60
2023-04-12T18:46:42.214Z,1.58
2023-04-12T18:49:09.144Z,1.58
2023-04-12T18:51:36.306Z,1.48
2023-04-12T18:54:03.365Z,2.30
2023-04-12T18:56:30.551Z,2.00
2023-04-12T18:58:58.279Z,2.40
2023-04-12T19:01:26.104Z,3.10
2023-04-12T19:03:53.465Z,2.60
2023-04-12T19:06:20.671Z,3.22
2023-04-12T19:08:48.682Z,3.13
2023-04-12T19:11:16.412Z,3.35
2023-04-12T19:13:43.467Z,3.60
2023-04-12T19:16:11.519Z,3.28
2023-04-12T19:18:38.482Z,3.20
2023-04-12T19:21:06.858Z,3.50
2023-04-12T19:23:34.042Z,2.80
2023-04-12T19:26:01.051Z,3.50
2023-04-12T19:28:28.359Z,3.22
2023-04-12T19:30:57.690Z,3.55
2023-04-12T19:33:25.887Z,3.50
2023-04-12T19:35:55.789Z,3.00
2023-04-12T19:38:23.017Z,3.20
2023-04-12T19:40:51.331Z,2.90
2023-04-12T19:43:21.093Z,2.60
2023-04-12T19:45:48.883Z,2.50
2023-04-12T19:48:17.189Z,2.45
2023-04-12T19:50:48.598Z,2.95
2023-04-12T19:53:21.649Z,2.20
2023-04-12T19:55:48.595Z,2.90
2023-04-12T19:58:15.822Z,2.67
2023-04-12T20:00:42.706Z,2.40
2023-04-12T20:03:09.791Z,2.28
2023-04-12T20:05:37.672Z,2.08
2023-04-12T20:08:04.788Z,2.08
2023-04-12T20:10:31.764Z,1.70
2023-04-12T20:12:58.848Z,2.05
2023-04-12T20:15:25.902Z,1.85
2023-04-12T20:17:56.629Z,1.85
2023-04-12T20:20:23.725Z,1.98
2023-04-12T20:22:52.833Z,1.80
2023-04-12T20:25:22.283Z,1.58
2023-04-12T20:27:52.621Z,1.45
2023-04-12T20:30:21.029Z,1.75
2023-04-12T20:32:54.347Z,1.40
2023-04-12T20:35:22.289Z,1.43
2023-04-12T20:37:51.217Z,1.42
2023-04-12T20:40:18.523Z,2.08
2023-04-12T20:42:45.784Z,1.17
2023-04-12T20:45:13.347Z,1.38
2023-04-12T20:47:41.039Z,1.13
2023-04-12T20:50:09.783Z,1.17
2023-04-12T20:52:36.580Z,1.30
2023-04-12T20:55:04.660Z,1.17
2023-04-12T20:57:31.572Z,1.38
2023-04-12T20:59:59.592Z,1.40
2023-04-12T21:02:26.679Z,1.23
2023-04-12T21:04:54.488Z,1.42
2023-04-12T21:07:22.503Z,1.15
2023-04-12T21:09:49.264Z,1.30
2023-04-12T21:12:18.434Z,1.17
2023-04-12T21:14:50.502Z,1.27
2023-04-12T21:17:22.114Z,1.35
2023-04-12T21:19:50.344Z,0.93
2023-04-12T21:22:17.249Z,1.60
2023-04-12T21:24:44.624Z,0.70
2023-04-12T21:27:11.706Z,1.25
2023-04-12T21:29:41.201Z,1.20
2023-04-12T21:32:09.297Z,0.95
2023-04-12T21:34:37.660Z,1.40
2023-04-12T21:37:07.633Z,1.60
2023-04-12T21:39:34.457Z,1.15
2023-04-12T21:42:01.827Z,1.40
2023-04-12T21:44:28.695Z,1.38
2023-04-12T21:46:56.401Z,1.52
2023-04-12T21:49:23.444Z,1.23
2023-04-12T21:51:52.210Z,1.27
2023-04-12T21:54:20.302Z,1.20
2023-04-12T21:56:47.062Z,1.42
2023-04-12T21:59:13.862Z,1.60
2023-04-12T22:01:42.015Z,1.40
2023-04-12T22:04:09.164Z,1.60
2023-04-12T22:06:36.060Z,1.83
2023-04-12T22:09:04.826Z,1.55
2023-04-12T22:11:31.806Z,1.55
2023-04-12T22:13:58.752Z,1.00
2023-04-12T22:16:25.915Z,1.17
2023-04-12T22:18:52.770Z,1.42
2023-04-12T22:21:19.829Z,1.55
2023-04-12T22:23:46.772Z,1.50
2023-04-12T22:26:13.736Z,1.30
2023-04-12T22:28:41.534Z,1.50
2023-04-12T22:31:10.109Z,1.30
2023-04-12T22:33:38.049Z,1.40
2023-04-12T22:36:06.098Z,1.30
2023-04-12T22:38:37.171Z,1.30
2023-04-12T22:41:06.382Z,1.35
2023-04-12T22:43:41.722Z,1.42
2023-04-12T22:46:18.453Z,1.38
2023-04-12T22:48:49.559Z,1.20
2023-04-12T22:51:16.612Z,1.37
2023-04-12T22:53:43.647Z,1.20
2023-04-12T22:56:11.272Z,1.52
2023-04-12T22:58:40.112Z,1.50
2023-04-12T23:01:07.232Z,1.58
2023-04-12T23:03:34.470Z,1.33
2023-04-12T23:06:01.977Z,1.58
2023-04-12T23:08:29.262Z,1.30
2023-04-12T23:11:02.804Z,1.55
2023-04-12T23:13:33.778Z,1.42
2023-04-12T23:16:05.502Z,1.37
2023-04-12T23:18:32.753Z,1.27
2023-04-12T23:21:01.675Z,1.50
2023-04-12T23:23:28.753Z,1.30
2023-04-12T23:25:55.607Z,1.60
2023-04-12T23:28:24.357Z,1.27
2023-04-12T23:30:51.793Z,1.52
2023-04-12T23:33:20.530Z,1.55
2023-04-12T23:36:03.525Z,1.80
2023-04-12T23:38:38.498Z,1.58
2023-04-12T23:41:07.693Z,1.30
2023-04-12T23:43:34.873Z,1.50
2023-04-12T23:46:03.157Z,1.30
2023-04-12T23:48:31.551Z,1.30
2023-04-12T23:50:58.623Z,1.58
2023-04-12T23:53:25.487Z,1.13
2023-04-12T23:55:53.472Z,1.08
2023-04-12T23:58:21.498Z,1.73
